Strona główna
METAR-TAF:

METAR-TAF

Lotnisko :

Port lotniczy Londyn-City

Londyn, Anglia

Szerokość geograficzna: 51-30N, Długość geograficzna: 000-03E, wysokość: 5 m

Aktualna obserwacja pogody

Raport powstał 40 minut temu, godzina 05:50 UTC
Wiatr 4 kt od północny wschód, zmienny między północno-północny zachód i wschodnio-południowy wschód
Temperatura 13°C
Wilgotność 77%
Ciśnienie 1023 hPa
Widzialność 10 km lub więcej

METAR: EGLC 010550Z AUTO 05004KT 340V110 9999 NCD 13/09 Q1023

czas: 07:30 (06:30 UTC)

Prognoza

Raport powstał 4 godziny i 34 minut temu, godzina 01:56 UTC
Prognoza ważna od 01 godzina 03 UTC do 01 godzina 12 UTC
Wiatr 6 kt od północno-północny wschód
Widzialność 10 km lub więcej
Brak chmur poniżej 1500 m i brak chmur cumulonimbus
Stopniowe zmiany
od 01 godzina 09 UTC do 01 godzina 12 UTC
Wiatr 10 kt od wschód

TAF: EGLC 010156Z 0103/0112 02006KT CAVOK BECMG 0109/0112 08010KT

Obserwacja i prognoza pogody dla ponad 4000 lotnisk (raport METAR i TAF).

Dostępne stacje oznaczono żółtymi i czerwonymi punktami na mapie.

Najedź kursorem aby zobaczyć nazwę stacji.

Kliknij aby zobaczyć obserwacje i prognozy pogody.

Aby zmienić mapę: kliknij na zielony przycisk z czarnym krzyżykiem, aby powiększyć; na zielony przycisk z myślnikiem, aby pomniejszyć; na zielone strzałki, aby przejść do map sąsiednich.


METAR-TAF: